sensor_id;sensor_type;location;lat;lon;timestamp;pressure;altitude;pressure_sealevel;temperature;humidity
79534;BME280;68982;52.160;6.736;2023-07-30T00:01:14;100683.41;;;15.68;86.70
79534;BME280;68982;52.160;6.736;2023-07-30T00:03:39;100681.22;;;16.14;88.83
79534;BME280;68982;52.160;6.736;2023-07-30T00:06:05;100680.03;;;15.91;88.54
79534;BME280;68982;52.160;6.736;2023-07-30T00:08:30;100673.00;;;16.02;87.19
79534;BME280;68982;52.160;6.736;2023-07-30T00:10:58;100678.28;;;15.97;86.15
79534;BME280;68982;52.160;6.736;2023-07-30T00:13:25;100677.09;;;15.74;86.52
79534;BME280;68982;52.160;6.736;2023-07-30T00:15:50;100675.84;;;15.70;88.12
79534;BME280;68982;52.160;6.736;2023-07-30T00:18:16;100674.38;;;15.74;86.79
79534;BME280;68982;52.160;6.736;2023-07-30T00:20:42;100675.25;;;15.50;87.81
79534;BME280;68982;52.160;6.736;2023-07-30T00:23:07;100673.88;;;15.59;87.11
79534;BME280;68982;52.160;6.736;2023-07-30T00:25:32;100669.59;;;15.70;87.28
79534;BME280;68982;52.160;6.736;2023-07-30T00:27:58;100678.66;;;15.64;88.43
79534;BME280;68982;52.160;6.736;2023-07-30T00:30:23;100678.03;;;15.43;86.70
79534;BME280;68982;52.160;6.736;2023-07-30T00:32:49;100683.19;;;15.70;87.12
79534;BME280;68982;52.160;6.736;2023-07-30T00:35:14;100674.50;;;15.61;86.25
79534;BME280;68982;52.160;6.736;2023-07-30T00:37:40;100670.63;;;15.69;87.43
79534;BME280;68982;52.160;6.736;2023-07-30T00:40:06;100677.09;;;15.74;87.58
79534;BME280;68982;52.160;6.736;2023-07-30T00:42:31;100686.41;;;15.85;87.14
79534;BME280;68982;52.160;6.736;2023-07-30T00:44:56;100680.88;;;15.73;87.21
79534;BME280;68982;52.160;6.736;2023-07-30T00:47:22;100675.47;;;15.48;87.61
79534;BME280;68982;52.160;6.736;2023-07-30T00:49:48;100674.25;;;15.44;87.09
79534;BME280;68982;52.160;6.736;2023-07-30T00:52:16;100674.94;;;15.58;86.79
79534;BME280;68982;52.160;6.736;2023-07-30T00:54:41;100685.44;;;15.54;86.14
79534;BME280;68982;52.160;6.736;2023-07-30T00:57:06;100684.38;;;15.55;86.41
79534;BME280;68982;52.160;6.736;2023-07-30T00:59:33;100692.31;;;15.57;85.87
79534;BME280;68982;52.160;6.736;2023-07-30T01:01:58;100690.38;;;15.83;85.94
79534;BME280;68982;52.160;6.736;2023-07-30T01:04:24;100686.19;;;15.62;87.01
79534;BME280;68982;52.160;6.736;2023-07-30T01:06:49;100689.44;;;15.70;87.64
79534;BME280;68982;52.160;6.736;2023-07-30T01:09:15;100685.69;;;15.71;87.20
79534;BME280;68982;52.160;6.736;2023-07-30T01:11:41;100683.81;;;15.47;84.99
79534;BME280;68982;52.160;6.736;2023-07-30T01:14:08;100695.97;;;15.44;88.30
79534;BME280;68982;52.160;6.736;2023-07-30T01:16:33;100697.41;;;15.47;85.78
79534;BME280;68982;52.160;6.736;2023-07-30T01:18:59;100693.59;;;15.29;86.29
79534;BME280;68982;52.160;6.736;2023-07-30T01:21:29;100700.25;;;15.33;84.54
79534;BME280;68982;52.160;6.736;2023-07-30T01:23:55;100698.88;;;15.24;85.57
79534;BME280;68982;52.160;6.736;2023-07-30T01:26:24;100695.75;;;15.27;86.57
79534;BME280;68982;52.160;6.736;2023-07-30T01:28:54;100704.25;;;15.31;84.80
79534;BME280;68982;52.160;6.736;2023-07-30T01:31:23;100706.22;;;15.24;86.08
79534;BME280;68982;52.160;6.736;2023-07-30T01:33:52;100710.84;;;15.42;85.08
79534;BME280;68982;52.160;6.736;2023-07-30T01:36:19;100706.91;;;15.38;84.50
79534;BME280;68982;52.160;6.736;2023-07-30T01:38:45;100708.47;;;15.52;84.99
79534;BME280;68982;52.160;6.736;2023-07-30T01:41:12;100708.25;;;15.28;84.28
79534;BME280;68982;52.160;6.736;2023-07-30T01:43:37;100712.28;;;15.44;87.32
79534;BME280;68982;52.160;6.736;2023-07-30T01:46:02;100720.97;;;15.53;88.53
79534;BME280;68982;52.160;6.736;2023-07-30T01:48:28;100710.31;;;15.51;85.69
79534;BME280;68982;52.160;6.736;2023-07-30T01:50:53;100712.63;;;15.29;84.74
79534;BME280;68982;52.160;6.736;2023-07-30T01:53:18;100722.06;;;15.52;86.89
79534;BME280;68982;52.160;6.736;2023-07-30T01:55:44;100722.59;;;15.36;85.16
79534;BME280;68982;52.160;6.736;2023-07-30T01:58:11;100721.50;;;15.43;86.72
79534;BME280;68982;52.160;6.736;2023-07-30T02:00:37;100713.03;;;15.33;88.29
79534;BME280;68982;52.160;6.736;2023-07-30T02:03:02;100715.63;;;15.46;87.91
79534;BME280;68982;52.160;6.736;2023-07-30T02:05:27;100715.78;;;15.26;86.81
79534;BME280;68982;52.160;6.736;2023-07-30T02:07:53;100718.56;;;15.20;85.76
79534;BME280;68982;52.160;6.736;2023-07-30T02:10:18;100715.03;;;15.19;84.73
79534;BME280;68982;52.160;6.736;2023-07-30T02:12:44;100708.25;;;15.28;85.99
79534;BME280;68982;52.160;6.736;2023-07-30T02:15:09;100709.03;;;15.36;84.88
79534;BME280;68982;52.160;6.736;2023-07-30T02:17:35;100714.03;;;15.39;84.23
79534;BME280;68982;52.160;6.736;2023-07-30T02:20:00;100716.41;;;15.28;87.84
79534;BME280;68982;52.160;6.736;2023-07-30T02:22:25;100709.91;;;15.29;87.71
79534;BME280;68982;52.160;6.736;2023-07-30T02:24:51;100710.47;;;15.13;85.19
79534;BME280;68982;52.160;6.736;2023-07-30T02:27:16;100714.16;;;15.25;84.86
79534;BME280;68982;52.160;6.736;2023-07-30T02:29:41;100710.06;;;15.09;88.44
79534;BME280;68982;52.160;6.736;2023-07-30T02:32:08;100704.94;;;15.26;86.88
79534;BME280;68982;52.160;6.736;2023-07-30T02:34:33;100705.72;;;15.08;85.50
79534;BME280;68982;52.160;6.736;2023-07-30T02:36:58;100708.66;;;15.32;85.55
79534;BME280;68982;52.160;6.736;2023-07-30T02:39:24;100704.31;;;15.24;84.55
79534;BME280;68982;52.160;6.736;2023-07-30T02:41:49;100705.94;;;15.32;85.13
79534;BME280;68982;52.160;6.736;2023-07-30T02:44:14;100696.44;;;15.41;84.43
79534;BME280;68982;52.160;6.736;2023-07-30T02:46:40;100698.28;;;15.22;84.64
79534;BME280;68982;52.160;6.736;2023-07-30T02:49:05;100706.28;;;15.17;84.80
79534;BME280;68982;52.160;6.736;2023-07-30T02:51:31;100705.44;;;15.17;87.35
79534;BME280;68982;52.160;6.736;2023-07-30T02:54:03;100709.66;;;15.12;84.50
79534;BME280;68982;52.160;6.736;2023-07-30T02:56:29;100702.94;;;15.15;85.08
79534;BME280;68982;52.160;6.736;2023-07-30T02:58:54;100704.94;;;15.26;84.33
79534;BME280;68982;52.160;6.736;2023-07-30T03:01:20;100702.81;;;15.28;85.53
79534;BME280;68982;52.160;6.736;2023-07-30T03:03:45;100709.09;;;15.29;86.77
79534;BME280;68982;52.160;6.736;2023-07-30T03:06:10;100703.66;;;15.29;86.44
79534;BME280;68982;52.160;6.736;2023-07-30T03:08:36;100712.41;;;15.06;86.10
79534;BME280;68982;52.160;6.736;2023-07-30T03:11:02;100707.25;;;14.98;85.50
79534;BME280;68982;52.160;6.736;2023-07-30T03:13:27;100707.31;;;15.16;84.75
79534;BME280;68982;52.160;6.736;2023-07-30T03:15:52;100709.91;;;15.29;86.70
79534;BME280;68982;52.160;6.736;2023-07-30T03:18:18;100718.13;;;14.98;86.50
79534;BME280;68982;52.160;6.736;2023-07-30T03:20:44;100713.28;;;15.00;85.29
79534;BME280;68982;52.160;6.736;2023-07-30T03:23:09;100708.22;;;15.10;83.98
79534;BME280;68982;52.160;6.736;2023-07-30T03:25:34;100716.00;;;15.00;84.91
79534;BME280;68982;52.160;6.736;2023-07-30T03:28:00;100707.91;;;14.93;85.98
79534;BME280;68982;52.160;6.736;2023-07-30T03:30:25;100696.44;;;14.91;85.78
79534;BME280;68982;52.160;6.736;2023-07-30T03:32:50;100710.38;;;15.01;85.74
79534;BME280;68982;52.160;6.736;2023-07-30T03:35:16;100710.97;;;15.03;87.20
79534;BME280;68982;52.160;6.736;2023-07-30T03:37:41;100711.19;;;15.27;88.07
79534;BME280;68982;52.160;6.736;2023-07-30T03:40:07;100711.69;;;15.17;85.92
79534;BME280;68982;52.160;6.736;2023-07-30T03:42:32;100714.50;;;14.79;84.76
79534;BME280;68982;52.160;6.736;2023-07-30T03:44:58;100723.69;;;14.78;87.30
79534;BME280;68982;52.160;6.736;2023-07-30T03:47:23;100717.97;;;14.61;86.91
79534;BME280;68982;52.160;6.736;2023-07-30T03:49:48;100712.94;;;14.58;86.31
79534;BME280;68982;52.160;6.736;2023-07-30T03:52:14;100696.88;;;14.56;87.20
79534;BME280;68982;52.160;6.736;2023-07-30T03:54:39;100710.72;;;14.80;85.91
79534;BME280;68982;52.160;6.736;2023-07-30T03:57:04;100713.13;;;14.95;88.59
79534;BME280;68982;52.160;6.736;2023-07-30T03:59:30;100713.66;;;14.78;88.02
79534;BME280;68982;52.160;6.736;2023-07-30T04:01:55;100710.97;;;15.03;87.88
79534;BME280;68982;52.160;6.736;2023-07-30T04:04:20;100716.56;;;15.08;86.69
79534;BME280;68982;52.160;6.736;2023-07-30T04:06:46;100713.66;;;14.78;85.88
79534;BME280;68982;52.160;6.736;2023-07-30T04:09:11;100707.91;;;14.93;88.82
79534;BME280;68982;52.160;6.736;2023-07-30T04:11:36;100711.84;;;14.97;85.65
79534;BME280;68982;52.160;6.736;2023-07-30T04:14:02;100718.41;;;14.83;85.29
79534;BME280;68982;52.160;6.736;2023-07-30T04:16:30;100712.56;;;14.86;87.60
79534;BME280;68982;52.160;6.736;2023-07-30T04:18:55;100716.88;;;14.93;87.16
79534;BME280;68982;52.160;6.736;2023-07-30T04:21:21;100715.28;;;15.11;85.00
79534;BME280;68982;52.160;6.736;2023-07-30T04:23:46;100713.91;;;14.77;86.99
79534;BME280;68982;52.160;6.736;2023-07-30T04:26:11;100724.09;;;14.81;86.04
79534;BME280;68982;52.160;6.736;2023-07-30T04:28:37;100727.06;;;14.73;86.89
79534;BME280;68982;52.160;6.736;2023-07-30T04:31:02;100726.75;;;14.88;86.26
79534;BME280;68982;52.160;6.736;2023-07-30T04:33:28;100731.25;;;14.69;87.66
79534;BME280;68982;52.160;6.736;2023-07-30T04:35:54;100721.06;;;14.64;87.03
79534;BME280;68982;52.160;6.736;2023-07-30T04:38:19;100729.03;;;14.91;86.72
79534;BME280;68982;52.160;6.736;2023-07-30T04:40:44;100737.81;;;14.86;86.82
79534;BME280;68982;52.160;6.736;2023-07-30T04:43:10;100741.19;;;14.82;87.80
79534;BME280;68982;52.160;6.736;2023-07-30T04:45:35;100744.09;;;14.87;87.84
79534;BME280;68982;52.160;6.736;2023-07-30T04:48:00;100746.94;;;14.99;87.89
79534;BME280;68982;52.160;6.736;2023-07-30T04:50:26;100741.84;;;15.09;87.24
79534;BME280;68982;52.160;6.736;2023-07-30T04:52:51;100744.56;;;15.09;86.53
79534;BME280;68982;52.160;6.736;2023-07-30T04:55:17;100744.13;;;14.80;88.03
79534;BME280;68982;52.160;6.736;2023-07-30T04:57:42;100751.41;;;14.86;88.11
79534;BME280;68982;52.160;6.736;2023-07-30T05:00:08;100743.72;;;14.83;88.10
79534;BME280;68982;52.160;6.736;2023-07-30T05:02:33;100748.47;;;14.88;88.05
79534;BME280;68982;52.160;6.736;2023-07-30T05:04:59;100743.13;;;15.06;89.00
79534;BME280;68982;52.160;6.736;2023-07-30T05:07:24;100743.38;;;14.98;88.28
79534;BME280;68982;52.160;6.736;2023-07-30T05:09:49;100736.50;;;14.96;88.94
79534;BME280;68982;52.160;6.736;2023-07-30T05:12:15;100746.66;;;15.07;88.43
79534;BME280;68982;52.160;6.736;2023-07-30T05:14:40;100749.38;;;15.07;87.77
79534;BME280;68982;52.160;6.736;2023-07-30T05:17:06;100758.53;;;15.38;88.04
79534;BME280;68982;52.160;6.736;2023-07-30T05:19:31;100753.63;;;15.28;88.00
79534;BME280;68982;52.160;6.736;2023-07-30T05:21:57;100749.63;;;15.30;88.48
79534;BME280;68982;52.160;6.736;2023-07-30T05:24:24;100754.22;;;15.30;87.36
79534;BME280;68982;52.160;6.736;2023-07-30T05:26:49;100757.25;;;15.40;88.53
79534;BME280;68982;52.160;6.736;2023-07-30T05:29:15;100754.22;;;15.30;88.46
79534;BME280;68982;52.160;6.736;2023-07-30T05:31:40;100760.31;;;15.25;88.03
79534;BME280;68982;52.160;6.736;2023-07-30T05:34:05;100750.91;;;15.28;88.35
79534;BME280;68982;52.160;6.736;2023-07-30T05:36:31;100760.47;;;15.30;88.26
79534;BME280;68982;52.160;6.736;2023-07-30T05:38:56;100761.75;;;15.28;89.29
79534;BME280;68982;52.160;6.736;2023-07-30T05:41:21;100751.44;;;15.11;88.86
79534;BME280;68982;52.160;6.736;2023-07-30T05:43:47;100760.09;;;15.27;88.96
79534;BME280;68982;52.160;6.736;2023-07-30T05:46:13;100760.53;;;15.24;89.12
79534;BME280;68982;52.160;6.736;2023-07-30T05:48:39;100761.81;;;15.21;88.97
79534;BME280;68982;52.160;6.736;2023-07-30T05:51:04;100757.66;;;15.19;89.61
79534;BME280;68982;52.160;6.736;2023-07-30T05:53:29;100758.88;;;15.73;88.61
79534;BME280;68982;52.160;6.736;2023-07-30T05:55:55;100765.22;;;15.60;88.57
79534;BME280;68982;52.160;6.736;2023-07-30T05:58:20;100760.88;;;15.34;89.09
79534;BME280;68982;52.160;6.736;2023-07-30T06:00:45;100763.59;;;15.34;88.95
79534;BME280;68982;52.160;6.736;2023-07-30T06:03:11;100773.06;;;15.50;88.85
79534;BME280;68982;52.160;6.736;2023-07-30T06:05:40;100763.50;;;15.47;89.84
79534;BME280;68982;52.160;6.736;2023-07-30T06:08:06;100768.09;;;15.72;88.88
79534;BME280;68982;52.160;6.736;2023-07-30T06:10:35;100767.28;;;15.65;89.06
79534;BME280;68982;52.160;6.736;2023-07-30T06:13:00;100768.50;;;15.69;89.25
79534;BME280;68982;52.160;6.736;2023-07-30T06:15:26;100766.78;;;15.49;89.65
79534;BME280;68982;52.160;6.736;2023-07-30T06:17:53;100769.50;;;15.49;90.32
79534;BME280;68982;52.160;6.736;2023-07-30T06:20:18;100766.25;;;15.66;89.73
79534;BME280;68982;52.160;6.736;2023-07-30T06:22:44;100767.25;;;15.71;89.78
79534;BME280;68982;52.160;6.736;2023-07-30T06:25:09;100763.72;;;15.64;89.23
79534;BME280;68982;52.160;6.736;2023-07-30T06:27:34;100770.59;;;15.67;89.93
79534;BME280;68982;52.160;6.736;2023-07-30T06:30:00;100759.63;;;15.55;91.33
79534;BME280;68982;52.160;6.736;2023-07-30T06:32:25;100773.69;;;15.52;91.14
79534;BME280;68982;52.160;6.736;2023-07-30T06:34:51;100773.22;;;15.55;90.75
79534;BME280;68982;52.160;6.736;2023-07-30T06:37:16;100762.34;;;15.55;90.96
79534;BME280;68982;52.160;6.736;2023-07-30T06:39:42;100765.22;;;15.60;90.59
79534;BME280;68982;52.160;6.736;2023-07-30T06:42:07;100779.81;;;15.66;90.26
79534;BME280;68982;52.160;6.736;2023-07-30T06:44:34;100777.38;;;15.83;90.43
79534;BME280;68982;52.160;6.736;2023-07-30T06:46:59;100774.75;;;15.69;90.92
79534;BME280;68982;52.160;6.736;2023-07-30T06:49:25;100762.09;;;15.63;90.21
79534;BME280;68982;52.160;6.736;2023-07-30T06:51:50;100773.72;;;15.70;89.92
79534;BME280;68982;52.160;6.736;2023-07-30T06:54:15;100771.78;;;15.78;89.70
79534;BME280;68982;52.160;6.736;2023-07-30T06:56:41;100773.00;;;15.82;90.05
79534;BME280;68982;52.160;6.736;2023-07-30T06:59:06;100771.44;;;15.74;89.87
79534;BME280;68982;52.160;6.736;2023-07-30T07:01:31;100778.91;;;15.79;89.88
79534;BME280;68982;52.160;6.736;2023-07-30T07:03:57;100782.44;;;15.79;90.38
79534;BME280;68982;52.160;6.736;2023-07-30T07:06:22;100782.88;;;15.76;90.06
79534;BME280;68982;52.160;6.736;2023-07-30T07:08:47;100787.56;;;15.87;90.36
79534;BME280;68982;52.160;6.736;2023-07-30T07:11:13;100790.69;;;15.91;90.06
79534;BME280;68982;52.160;6.736;2023-07-30T07:13:38;100787.56;;;15.87;89.68
79534;BME280;68982;52.160;6.736;2023-07-30T07:16:04;100788.44;;;16.06;89.03
79534;BME280;68982;52.160;6.736;2023-07-30T07:18:29;100785.25;;;15.91;89.08
79534;BME280;68982;52.160;6.736;2023-07-30T07:20:54;100786.72;;;16.12;89.14
79534;BME280;68982;52.160;6.736;2023-07-30T07:23:20;100787.28;;;16.14;90.22
79534;BME280;68982;52.160;6.736;2023-07-30T07:25:45;100792.38;;;16.29;88.63
79534;BME280;68982;52.160;6.736;2023-07-30T07:28:11;100787.44;;;16.37;88.04
79534;BME280;68982;52.160;6.736;2023-07-30T07:30:36;100783.13;;;16.48;89.25
79534;BME280;68982;52.160;6.736;2023-07-30T07:33:02;100793.72;;;16.38;88.61
79534;BME280;68982;52.160;6.736;2023-07-30T07:35:27;100797.72;;;16.35;88.67
79534;BME280;68982;52.160;6.736;2023-07-30T07:37:52;100796.22;;;16.40;89.10
79534;BME280;68982;52.160;6.736;2023-07-30T07:40:18;100802.81;;;16.32;88.65
79534;BME280;68982;52.160;6.736;2023-07-30T07:42:43;100799.94;;;16.45;88.03
79534;BME280;68982;52.160;6.736;2023-07-30T07:45:09;100801.72;;;16.51;88.63
79534;BME280;68982;52.160;6.736;2023-07-30T07:47:34;100805.28;;;16.52;88.72
79534;BME280;68982;52.160;6.736;2023-07-30T07:49:59;100801.56;;;16.46;86.67
79534;BME280;68982;52.160;6.736;2023-07-30T07:52:25;100812.78;;;16.56;88.40
79534;BME280;68982;52.160;6.736;2023-07-30T07:54:50;100808.75;;;16.59;87.74
79534;BME280;68982;52.160;6.736;2023-07-30T07:57:16;100804.25;;;16.65;86.83
79534;BME280;68982;52.160;6.736;2023-07-30T07:59:41;100812.81;;;16.68;87.27
79534;BME280;68982;52.160;6.736;2023-07-30T08:02:10;100812.22;;;16.66;86.52
79534;BME280;68982;52.160;6.736;2023-07-30T08:04:35;100816.97;;;16.71;86.55
79534;BME280;68982;52.160;6.736;2023-07-30T08:07:01;100814.72;;;16.68;85.99
79534;BME280;68982;52.160;6.736;2023-07-30T08:09:29;100816.16;;;16.70;86.91
79534;BME280;68982;52.160;6.736;2023-07-30T08:11:54;100821.59;;;16.70;86.75
79534;BME280;68982;52.160;6.736;2023-07-30T08:14:20;100819.78;;;16.64;86.07
79534;BME280;68982;52.160;6.736;2023-07-30T08:16:45;100806.22;;;16.76;85.24
79534;BME280;68982;52.160;6.736;2023-07-30T08:19:10;100805.25;;;17.01;85.58
79534;BME280;68982;52.160;6.736;2023-07-30T08:21:36;100804.31;;;16.95;84.43
79534;BME280;68982;52.160;6.736;2023-07-30T08:24:01;100798.78;;;17.02;84.95
79534;BME280;68982;52.160;6.736;2023-07-30T08:26:26;100796.44;;;17.05;84.27
79534;BME280;68982;52.160;6.736;2023-07-30T08:28:52;100798.56;;;17.03;82.88
79534;BME280;68982;52.160;6.736;2023-07-30T08:31:17;100795.06;;;16.96;84.31
79534;BME280;68982;52.160;6.736;2023-07-30T08:33:42;100801.03;;;17.05;83.75
79534;BME280;68982;52.160;6.736;2023-07-30T08:36:08;100804.59;;;17.05;82.51
79534;BME280;68982;52.160;6.736;2023-07-30T08:38:33;100808.41;;;17.16;84.98
79534;BME280;68982;52.160;6.736;2023-07-30T08:40:58;100808.75;;;17.08;82.86
79534;BME280;68982;52.160;6.736;2023-07-30T08:43:24;100802.00;;;17.10;82.54
79534;BME280;68982;52.160;6.736;2023-07-30T08:45:50;100804.16;;;17.32;83.04
79534;BME280;68982;52.160;6.736;2023-07-30T08:48:15;100803.38;;;17.43;82.58
79534;BME280;68982;52.160;6.736;2023-07-30T08:50:41;100801.13;;;17.52;82.13
79534;BME280;68982;52.160;6.736;2023-07-30T08:53:07;100800.66;;;17.55;79.78
79534;BME280;68982;52.160;6.736;2023-07-30T08:55:34;100803.50;;;17.60;81.38
79534;BME280;68982;52.160;6.736;2023-07-30T08:58:03;100801.63;;;17.72;79.37
79534;BME280;68982;52.160;6.736;2023-07-30T09:00:31;100800.19;;;18.17;83.36
79534;BME280;68982;52.160;6.736;2023-07-30T09:03:03;100801.84;;;18.30;78.49
79534;BME280;68982;52.160;6.736;2023-07-30T09:05:29;100793.66;;;18.30;78.43
79534;BME280;68982;52.160;6.736;2023-07-30T09:07:56;100799.59;;;18.27;77.05
79534;BME280;68982;52.160;6.736;2023-07-30T09:10:22;100799.84;;;18.13;77.37
79534;BME280;68982;52.160;6.736;2023-07-30T09:12:57;100792.75;;;18.12;78.48
79534;BME280;68982;52.160;6.736;2023-07-30T09:15:32;100790.00;;;18.00;77.73
79534;BME280;68982;52.160;6.736;2023-07-30T09:17:59;100796.78;;;17.98;77.02
79534;BME280;68982;52.160;6.736;2023-07-30T09:20:24;100797.97;;;17.90;77.83
79534;BME280;68982;52.160;6.736;2023-07-30T09:22:49;100795.97;;;17.86;78.78
79534;BME280;68982;52.160;6.736;2023-07-30T09:25:18;100803.66;;;17.89;77.77
79534;BME280;68982;52.160;6.736;2023-07-30T09:27:48;100816.25;;;17.90;76.09
79534;BME280;68982;52.160;6.736;2023-07-30T09:30:14;100801.31;;;17.92;76.01
79534;BME280;68982;52.160;6.736;2023-07-30T09:32:40;100800.09;;;17.76;76.54
79534;BME280;68982;52.160;6.736;2023-07-30T09:35:10;100808.06;;;18.01;76.69
79534;BME280;68982;52.160;6.736;2023-07-30T09:37:38;100809.09;;;18.64;79.16
79534;BME280;68982;52.160;6.736;2023-07-30T09:40:08;100814.66;;;18.81;74.52
79534;BME280;68982;52.160;6.736;2023-07-30T09:42:35;100811.69;;;18.31;74.12
79534;BME280;68982;52.160;6.736;2023-07-30T09:45:03;100819.44;;;18.10;75.04
79534;BME280;68982;52.160;6.736;2023-07-30T09:47:30;100825.34;;;18.19;74.26
79534;BME280;68982;52.160;6.736;2023-07-30T09:49:56;100823.34;;;17.91;75.82
79534;BME280;68982;52.160;6.736;2023-07-30T09:52:21;100817.66;;;17.92;75.29
79534;BME280;68982;52.160;6.736;2023-07-30T09:54:49;100812.78;;;18.06;74.93
79534;BME280;68982;52.160;6.736;2023-07-30T09:57:15;100824.13;;;18.38;72.93
79534;BME280;68982;52.160;6.736;2023-07-30T09:59:41;100819.44;;;18.62;71.98
79534;BME280;68982;52.160;6.736;2023-07-30T10:02:08;100811.50;;;18.61;72.70
79534;BME280;68982;52.160;6.736;2023-07-30T10:04:39;100821.44;;;18.67;72.64
79534;BME280;68982;52.160;6.736;2023-07-30T10:07:12;100813.38;;;18.60;72.91
79534;BME280;68982;52.160;6.736;2023-07-30T10:09:42;100825.38;;;18.59;73.02
79534;BME280;68982;52.160;6.736;2023-07-30T10:12:16;100816.09;;;18.60;71.23
79534;BME280;68982;52.160;6.736;2023-07-30T10:14:43;100811.59;;;18.66;72.97
79534;BME280;68982;52.160;6.736;2023-07-30T10:17:12;100827.22;;;18.82;69.85
79534;BME280;68982;52.160;6.736;2023-07-30T10:19:38;100819.91;;;19.00;70.32
79534;BME280;68982;52.160;6.736;2023-07-30T10:24:55;100823.63;;;18.94;69.17
79534;BME280;68982;52.160;6.736;2023-07-30T10:27:24;100822.69;;;18.88;69.06
79534;BME280;68982;52.160;6.736;2023-07-30T10:30:08;100829.78;;;19.01;70.93
79534;BME280;68982;52.160;6.736;2023-07-30T10:35:35;100852.75;;;18.76;68.96
79534;BME280;68982;52.160;6.736;2023-07-30T10:38:29;100870.94;;;19.11;68.35
79534;BME280;68982;52.160;6.736;2023-07-30T10:41:14;100858.22;;;18.88;67.76
79534;BME280;68982;52.160;6.736;2023-07-30T10:43:45;100850.50;;;18.85;68.42
79534;BME280;68982;52.160;6.736;2023-07-30T10:46:12;100860.00;;;18.94;69.69
79534;BME280;68982;52.160;6.736;2023-07-30T10:48:40;100862.66;;;19.06;68.92
79534;BME280;68982;52.160;6.736;2023-07-30T10:51:09;100857.97;;;18.90;67.81
79534;BME280;68982;52.160;6.736;2023-07-30T10:53:35;100832.72;;;18.71;68.61
79534;BME280;68982;52.160;6.736;2023-07-30T10:56:05;100842.66;;;18.77;69.16
79534;BME280;68982;52.160;6.736;2023-07-30T10:58:32;100856.34;;;18.77;69.35
79534;BME280;68982;52.160;6.736;2023-07-30T11:00:58;100837.09;;;18.72;66.89
79534;BME280;68982;52.160;6.736;2023-07-30T11:03:25;100841.16;;;18.81;68.23
79534;BME280;68982;52.160;6.736;2023-07-30T11:05:54;100830.78;;;18.83;67.71
79534;BME280;68982;52.160;6.736;2023-07-30T11:08:41;100858.94;;;18.83;66.70
79534;BME280;68982;52.160;6.736;2023-07-30T11:11:08;100853.97;;;18.69;69.50
79534;BME280;68982;52.160;6.736;2023-07-30T11:13:42;100859.34;;;18.63;69.36
79534;BME280;68982;52.160;6.736;2023-07-30T11:16:09;100855.53;;;18.64;68.88
79534;BME280;68982;52.160;6.736;2023-07-30T11:18:35;100853.16;;;18.68;69.02
79534;BME280;68982;52.160;6.736;2023-07-30T11:21:12;100858.84;;;18.67;69.49
79534;BME280;68982;52.160;6.736;2023-07-30T11:23:39;100859.22;;;18.58;71.01
79534;BME280;68982;52.160;6.736;2023-07-30T11:26:08;100866.72;;;18.51;69.73
79534;BME280;68982;52.160;6.736;2023-07-30T11:28:37;100865.06;;;18.50;70.21
79534;BME280;68982;52.160;6.736;2023-07-30T11:31:17;100862.06;;;18.52;68.46
79534;BME280;68982;52.160;6.736;2023-07-30T11:33:46;100868.13;;;18.66;69.20
79534;BME280;68982;52.160;6.736;2023-07-30T11:36:14;100867.03;;;18.78;68.23
79534;BME280;68982;52.160;6.736;2023-07-30T11:38:41;100854.31;;;18.84;68.41
79534;BME280;68982;52.160;6.736;2023-07-30T11:41:07;100849.00;;;19.06;69.01
79534;BME280;68982;52.160;6.736;2023-07-30T11:43:36;100854.16;;;19.19;68.69
79534;BME280;68982;52.160;6.736;2023-07-30T11:46:16;100861.19;;;19.15;69.04
79534;BME280;68982;52.160;6.736;2023-07-30T11:48:46;100862.44;;;19.08;68.86
79534;BME280;68982;52.160;6.736;2023-07-30T11:51:28;100858.84;;;19.07;66.52
79534;BME280;68982;52.160;6.736;2023-07-30T11:53:55;100877.22;;;19.40;68.95
79534;BME280;68982;52.160;6.736;2023-07-30T11:56:23;100865.09;;;19.19;67.88
79534;BME280;68982;52.160;6.736;2023-07-30T11:58:50;100865.94;;;19.82;66.06
79534;BME280;68982;52.160;6.736;2023-07-30T12:01:16;100863.25;;;20.21;66.07
79534;BME280;68982;52.160;6.736;2023-07-30T12:03:42;100843.75;;;20.40;63.92
79534;BME280;68982;52.160;6.736;2023-07-30T12:06:11;100864.56;;;20.41;64.02
79534;BME280;68982;52.160;6.736;2023-07-30T12:08:37;100866.41;;;19.96;63.50
79534;BME280;68982;52.160;6.736;2023-07-30T12:11:05;100865.25;;;20.09;64.71
79534;BME280;68982;52.160;6.736;2023-07-30T12:13:30;100863.00;;;20.45;64.69
79534;BME280;68982;52.160;6.736;2023-07-30T12:15:56;100881.16;;;20.90;62.35
79534;BME280;68982;52.160;6.736;2023-07-30T12:18:23;100868.94;;;20.37;64.07
79534;BME280;68982;52.160;6.736;2023-07-30T12:20:52;100873.34;;;20.21;64.53
79534;BME280;68982;52.160;6.736;2023-07-30T12:23:19;100871.50;;;20.26;63.00
79534;BME280;68982;52.160;6.736;2023-07-30T12:25:45;100875.03;;;20.05;64.28
79534;BME280;68982;52.160;6.736;2023-07-30T12:28:11;100868.66;;;19.99;65.13
79534;BME280;68982;52.160;6.736;2023-07-30T12:30:36;100875.19;;;20.15;65.00
79534;BME280;68982;52.160;6.736;2023-07-30T12:33:05;100869.72;;;19.98;64.90
79534;BME280;68982;52.160;6.736;2023-07-30T12:35:31;100868.53;;;20.28;64.15
79534;BME280;68982;52.160;6.736;2023-07-30T12:37:57;100860.44;;;20.38;64.15
79534;BME280;68982;52.160;6.736;2023-07-30T12:40:23;100865.72;;;20.45;64.12
79534;BME280;68982;52.160;6.736;2023-07-30T12:42:48;100863.59;;;20.08;63.12
79534;BME280;68982;52.160;6.736;2023-07-30T12:45:14;100866.09;;;20.70;62.08
79534;BME280;68982;52.160;6.736;2023-07-30T12:47:40;100875.25;;;21.03;61.76
79534;BME280;68982;52.160;6.736;2023-07-30T12:50:05;100874.75;;;20.84;60.96
79534;BME280;68982;52.160;6.736;2023-07-30T12:52:33;100880.25;;;20.62;62.64